PAJN/JNU METAR and TAF weather

Enter ICAO airport designator
Station Type Date Time Source
PAJN METAR 2020/04/09 19:53 UTC NOAA

PAJN 091953Z 09008KT 10SM -RA BKN039 OVC060 04/01 A3022 RMK AO2 RAB1856E23B51 SLP233 P0000 T00440006


Station Type Date Time Source
PAJN Decoded METAR 2020/04/09 19:53 UTC NOAA

JUNEAU INTERNATIONAL AIRPORT, AK, United States (PAJN) 58-21N 134-34W 8M
Apr 09, 2020 - 03:53 PM EDT / 2020.04.09 1953 UTC
Wind: from the E (090 degrees) at 9 MPH (8 KT):0
Visibility: 10 mile(s):0
Sky conditions: overcast
Weather: light rain
Precipitation last hour: A trace
Temperature: 39.9 F (4.4 C)
Dew Point: 33.1 F (0.6 C)
Relative Humidity: 76%
Pressure (altimeter): 30.22 in. Hg (1023 hPa)
ob: PAJN 091953Z 09008KT 10SM -RA BKN039 OVC060 04/01 A3022 RMK AO2 RAB1856E23B51 SLP233 P0000 T00440006
cycle: 20

Station Type Date Time Source
PAJN TAF 2020/04/09 18:24 UTC NOAA

TAF PAJN 091722Z 0918/1018 07008KT P6SM -SHRA SCT030 BKN045
FM092200 24006KT P6SM VCSH BKN035 BKN060
FM100300 VRB03KT P6SM BKN060

Example: see airport list